Time;durP1;ratioP1;P1;durP2;ratioP2;P2;SDS_P1;SDS_P2;PMS_P1;PMS_P2;Temp;Humidity;BMP_temperature;BMP_pressure;BME280_temperature;BME280_humidity;BME280_pressure;Samples;Min_cycle;Max_cycle;Signal;HPM_P1;HPM_P2
2022/09/09 00:01:35;;;;;;;;;;;;;;;;;;5035686;28;1983;-66
2022/09/09 00:04:14;;;;;;;;;;;;;;;;;;5032432;28;1625;-66
2022/09/09 00:06:52;;;;;;;;;;;;;;;;;;5031016;28;1225;-66
2022/09/09 00:09:19;;;;;;;;;;;;;;;;;;5030843;28;1779;-66
2022/09/09 00:12:03;;;;;;;;;;;;;;;;;;5040538;28;1811;-66
2022/09/09 00:14:31;;;;;;;;;;;;;;;;;;5036898;28;1629;-65
2022/09/09 00:17:00;;;;;;;;;;;;;;;;;;5033531;28;1550;-65
2022/09/09 00:19:58;;;;;;;;;;;;;;;;;;5035920;28;1097;-66
2022/09/09 00:22:23;;;;;;;;;;;;;;;;;;5015583;28;1577;-65
2022/09/09 00:24:53;;;;;;;;;;;;;;;;;;5034251;28;1479;-65
2022/09/09 00:27:33;;;;;;;;;;;;;;;;;;5042384;28;1747;-65
2022/09/09 00:30:12;;;;;;;;;;;;;;;;;;5038496;28;1519;-65
2022/09/09 00:32:37;;;;;;;;;;;;;;;;;;5038316;28;1461;-65
2022/09/09 00:35:06;;;;;;;;;;;;;;;;;;5033738;28;1526;-66
2022/09/09 00:37:31;;;;;;;;;;;;;;;;;;5036375;28;1554;-66
2022/09/09 00:39:59;;;;;;;;;;;;;;;;;;5037951;28;1963;-66
2022/09/09 00:42:26;;;;;;;;;;;;;;;;;;5040050;28;1653;-65
2022/09/09 00:45:12;;;;;;;;;;;;;;;;;;5034600;28;1691;-66
2022/09/09 00:47:37;;;;;;;;;;;;;;;;;;5034114;28;1484;-66
2022/09/09 00:50:14;;;;;;;;;;;;;;;;;;5041463;28;1763;-66
2022/09/09 00:52:42;;;;;;;;;;;;;;;;;;5034557;28;1505;-66
2022/09/09 00:55:13;;;;;;;;;;;;;;;;;;5040056;28;1534;-66
2022/09/09 00:57:38;;;;;;;;;;;;;;;;;;5034158;28;1549;-66
2022/09/09 01:00:18;;;;;;;;;;;;;;;;;;5035006;28;2029;-66
2022/09/09 01:03:02;;;;;;;;;;;;;;;;;;5035508;28;1449;-66
2022/09/09 01:05:27;;;;;;;;;;;;;;;;;;5033598;28;1509;-66
2022/09/09 01:07:53;;;;;;;;;;;;;;;;;;5039811;28;1434;-66
2022/09/09 01:10:37;;;;;;;;;;;;;;;;;;5032436;28;1410;-66
2022/09/09 01:13:05;;;;;;;;;;;;;;;;;;5041416;28;1481;-66
2022/09/09 01:15:30;;;;;;;;;;;;;;;;;;5034996;28;1827;-66
2022/09/09 01:18:02;;;;;;;;;;;;;;;;;;5038532;28;1496;-66
2022/09/09 01:20:31;;;;;;;;;;;;;;;;;;5030376;28;1905;-66
2022/09/09 01:22:56;;;;;;;;;;;;;;;;;;5032994;28;1585;-65
2022/09/09 01:25:29;;;;;;;;;;;;;;;;;;5030334;28;1140;-66
2022/09/09 01:27:56;;;;;;;;;;;;;;;;;;5027255;28;1783;-65
2022/09/09 01:30:22;;;;;;;;;;;;;;;;;;5038231;28;1442;-66
2022/09/09 01:32:52;;;;;;;;;;;;;;;;;;5037379;28;1606;-66
2022/09/09 01:35:20;;;;;;;;;;;;;;;;;;5038157;28;1473;-66
2022/09/09 01:37:46;;;;;;;;;;;;;;;;;;5037056;28;1400;-65
2022/09/09 01:40:11;;;;;;;;;;;;;;;;;;5032321;28;1951;-65
2022/09/09 01:42:36;;;;;;;;;;;;;;;;;;5035699;28;1363;-65
2022/09/09 01:45:02;;;;;;;;;;;;;;;;;;5030631;28;1577;-65
2022/09/09 01:47:27;;;;;;;;;;;;;;;;;;5038322;28;1538;-65
2022/09/09 01:49:52;;;;;;;;;;;;;;;;;;5033455;28;1489;-65
2022/09/09 01:52:18;;;;;;;;;;;;;;;;;;5033741;28;1239;-65
2022/09/09 01:54:43;;;;;;;;;;;;;;;;;;5033367;28;1811;-65
2022/09/09 01:57:11;;;;;;;;;;;;;;;;;;5033757;28;1358;-65
2022/09/09 01:59:45;;;;;;;;;;;;;;;;;;5037660;28;1445;-65
2022/09/09 02:02:28;;;;;;;;;;;;;;;;;;5036946;28;1907;-65
2022/09/09 02:05:00;;;;;;;;;;;;;;;;;;5040772;28;1544;-65
2022/09/09 02:07:38;;;;;;;;;;;;;;;;;;5031114;28;1554;-65
2022/09/09 02:10:11;;;;;;;;;;;;;;;;;;5033953;28;1202;-65
2022/09/09 02:12:38;;;;;;;;;;;;;;;;;;5029943;28;1525;-65
2022/09/09 02:15:07;;;;;;;;;;;;;;;;;;5037289;28;1403;-65
2022/09/09 02:17:35;;;;;;;;;;;;;;;;;;5035008;28;1428;-65
2022/09/09 02:20:08;;;;;;;;;;;;;;;;;;5033715;28;1952;-65
2022/09/09 02:22:34;;;;;;;;;;;;;;;;;;5041543;28;1872;-65
2022/09/09 02:25:00;;;;;;;;;;;;;;;;;;5031842;28;1763;-65
2022/09/09 02:27:25;;;;;;;;;;;;;;;;;;5040111;28;1633;-66
2022/09/09 02:29:52;;;;;;;;;;;;;;;;;;5037474;28;1363;-65
2022/09/09 02:32:19;;;;;;;;;;;;;;;;;;5032425;28;1450;-65
2022/09/09 02:34:50;;;;;;;;;;;;;;;;;;5032080;28;1419;-65
2022/09/09 02:37:17;;;;;;;;;;;;;;;;;;5034944;28;1492;-66
2022/09/09 02:39:42;;;;;;;;;;;;;;;;;;5039448;28;1414;-66
2022/09/09 02:42:08;;;;;;;;;;;;;;;;;;5036123;28;1890;-66
2022/09/09 02:44:33;;;;;;;;;;;;;;;;;;5035777;28;1748;-65
2022/09/09 02:47:17;;;;;;;;;;;;;;;;;;5036449;28;1372;-65
2022/09/09 02:49:56;;;;;;;;;;;;;;;;;;5032719;28;1626;-65
2022/09/09 02:52:33;;;;;;;;;;;;;;;;;;5029955;28;1398;-65
2022/09/09 02:55:04;;;;;;;;;;;;;;;;;;5032447;28;1202;-65
2022/09/09 02:57:30;;;;;;;;;;;;;;;;;;5038665;28;1525;-66
2022/09/09 02:59:57;;;;;;;;;;;;;;;;;;5028731;28;1926;-66
2022/09/09 03:02:22;;;;;;;;;;;;;;;;;;5030071;28;1506;-65
2022/09/09 03:04:50;;;;;;;;;;;;;;;;;;5036845;28;1707;-65
2022/09/09 03:07:16;;;;;;;;;;;;;;;;;;5035554;28;1783;-65
2022/09/09 03:09:42;;;;;;;;;;;;;;;;;;5034664;28;1484;-66
2022/09/09 03:12:07;;;;;;;;;;;;;;;;;;5029568;28;1385;-65
2022/09/09 03:14:32;;;;;;;;;;;;;;;;;;5037646;28;1806;-66
2022/09/09 03:17:00;;;;;;;;;;;;;;;;;;5034297;28;1455;-65
2022/09/09 03:19:25;;;;;;;;;;;;;;;;;;5032513;28;1612;-66
2022/09/09 03:21:50;;;;;;;;;;;;;;;;;;5032027;28;1968;-65
2022/09/09 03:24:16;;;;;;;;;;;;;;;;;;5035194;28;1659;-65
2022/09/09 03:26:44;;;;;;;;;;;;;;;;;;5034180;28;1135;-66
2022/09/09 03:29:09;;;;;;;;;;;;;;;;;;5036385;28;1485;-65
2022/09/09 03:31:36;;;;;;;;;;;;;;;;;;5031618;28;1629;-65
2022/09/09 03:34:02;;;;;;;;;;;;;;;;;;5034019;28;1763;-65
2022/09/09 03:36:27;;;;;;;;;;;;;;;;;;5036352;28;1609;-65
2022/09/09 03:38:54;;;;;;;;;;;;;;;;;;5032368;28;1473;-65
2022/09/09 03:41:20;;;;;;;;;;;;;;;;;;5035959;28;1901;-65
2022/09/09 03:43:46;;;;;;;;;;;;;;;;;;5036979;28;1499;-65
2022/09/09 03:46:11;;;;;;;;;;;;;;;;;;5034070;28;1347;-65
2022/09/09 03:48:36;;;;;;;;;;;;;;;;;;5033442;28;1397;-65
2022/09/09 03:51:02;;;;;;;;;;;;;;;;;;5039088;28;1480;-66
2022/09/09 03:53:28;;;;;;;;;;;;;;;;;;5031556;28;1739;-65
2022/09/09 03:55:54;;;;;;;;;;;;;;;;;;5033184;28;1760;-65
2022/09/09 03:58:20;;;;;;;;;;;;;;;;;;5030757;28;1391;-65
2022/09/09 04:01:05;;;;;;;;;;;;;;;;;;5036498;28;1951;-65
2022/09/09 04:03:30;;;;;;;;;;;;;;;;;;5029263;28;1517;-65
2022/09/09 04:05:56;;;;;;;;;;;;;;;;;;5036107;28;1755;-65
2022/09/09 04:08:22;;;;;;;;;;;;;;;;;;5034614;28;1905;-66
2022/09/09 04:10:48;;;;;;;;;;;;;;;;;;5033647;28;1005;-65
2022/09/09 04:13:15;;;;;;;;;;;;;;;;;;5037866;28;1585;-65
2022/09/09 04:15:40;;;;;;;;;;;;;;;;;;5029255;28;1813;-65
2022/09/09 04:18:06;;;;;;;;;;;;;;;;;;5036619;28;1463;-65
2022/09/09 04:20:31;;;;;;;;;;;;;;;;;;5031833;28;1978;-65
2022/09/09 04:22:56;;;;;;;;;;;;;;;;;;5031626;28;1541;-65
2022/09/09 04:25:21;;;;;;;;;;;;;;;;;;5036492;28;1532;-65
2022/09/09 04:27:47;;;;;;;;;;;;;;;;;;5035693;28;1606;-65
2022/09/09 04:30:12;;;;;;;;;;;;;;;;;;5030350;28;1546;-65
2022/09/09 04:32:37;;;;;;;;;;;;;;;;;;5030517;28;1551;-65
2022/09/09 04:35:03;;;;;;;;;;;;;;;;;;5037502;28;1386;-65
2022/09/09 04:37:28;;;;;;;;;;;;;;;;;;5032970;28;1582;-65
2022/09/09 04:39:53;;;;;;;;;;;;;;;;;;5032493;28;1698;-65
2022/09/09 04:42:19;;;;;;;;;;;;;;;;;;5033872;28;1961;-65
2022/09/09 04:44:44;;;;;;;;;;;;;;;;;;5034086;28;1512;-65
2022/09/09 04:47:10;;;;;;;;;;;;;;;;;;5031640;28;1457;-65
2022/09/09 04:49:35;;;;;;;;;;;;;;;;;;5031253;28;1826;-65
2022/09/09 04:52:01;;;;;;;;;;;;;;;;;;5033680;28;1331;-65
2022/09/09 04:54:27;;;;;;;;;;;;;;;;;;5032355;28;1433;-65
2022/09/09 04:56:52;;;;;;;;;;;;;;;;;;5035062;28;1284;-65
2022/09/09 04:59:18;;;;;;;;;;;;;;;;;;5031676;28;1483;-65
2022/09/09 05:01:43;;;;;;;;;;;;;;;;;;5033501;28;1902;-66
2022/09/09 05:04:08;;;;;;;;;;;;;;;;;;5072813;22;3662;-72
2022/09/09 05:06:35;;;;;;;;;;;;;;;;;;5058060;28;1460;-76
2022/09/09 05:09:01;;;;;;;;;;;;;;;;;;5079618;28;1536;-76
2022/09/09 05:11:27;;;;;;;;;;;;;;;;;;5078280;28;1228;-76
2022/09/09 05:13:53;;;;;;;;;;;;;;;;;;5057970;28;1563;-76
2022/09/09 05:16:19;;;;;;;;;;;;;;;;;;5056041;28;1311;-76
2022/09/09 05:18:44;;;;;;;;;;;;;;;;;;5054171;28;1453;-76
2022/09/09 05:21:13;;;;;;;;;;;;;;;;;;5051453;28;1979;-75
2022/09/09 05:23:38;;;;;;;;;;;;;;;;;;5053124;28;1776;-76
2022/09/09 05:26:04;;;;;;;;;;;;;;;;;;5060010;28;1857;-75
2022/09/09 05:28:30;;;;;;;;;;;;;;;;;;5048981;28;1798;-76
2022/09/09 05:31:07;;;;;;;;;;;;;;;;;;5036984;28;1563;-75
2022/09/09 05:33:34;;;;;;;;;;;;;;;;;;5047962;28;1723;-76
2022/09/09 05:36:01;;;;;;;;;;;;;;;;;;5059304;28;1540;-75
2022/09/09 05:38:26;;;;;;;;;;;;;;;;;;5055273;28;1739;-75
2022/09/09 05:40:52;;;;;;;;;;;;;;;;;;5056979;28;1951;-75
2022/09/09 05:43:18;;;;;;;;;;;;;;;;;;5054945;28;1613;-75
2022/09/09 05:45:43;;;;;;;;;;;;;;;;;;5045111;28;1767;-73
2022/09/09 05:48:08;;;;;;;;;;;;;;;;;;5059276;28;1524;-75
2022/09/09 05:50:33;;;;;;;;;;;;;;;;;;5055288;28;1762;-75
2022/09/09 05:52:58;;;;;;;;;;;;;;;;;;5054252;28;1663;-78
2022/09/09 05:55:25;;;;;;;;;;;;;;;;;;5061444;28;1515;-78
2022/09/09 05:57:51;;;;;;;;;;;;;;;;;;5061336;28;1696;-78
2022/09/09 06:00:17;;;;;;;;;;;;;;;;;;5052395;28;1980;-78
2022/09/09 06:02:42;;;;;;;;;;;;;;;;;;5050743;28;1471;-78
2022/09/09 06:05:08;;;;;;;;;;;;;;;;;;5056669;28;1207;-76
2022/09/09 06:07:33;;;;;;;;;;;;;;;;;;5062296;28;1546;-75
2022/09/09 06:09:58;;;;;;;;;;;;;;;;;;5066394;28;1376;-77
2022/09/09 06:12:25;;;;;;;;;;;;;;;;;;5063227;28;1257;-76
2022/09/09 06:14:50;;;;;;;;;;;;;;;;;;5058786;28;1566;-77
2022/09/09 06:17:16;;;;;;;;;;;;;;;;;;5064330;28;1353;-77
2022/09/09 06:19:41;;;;;;;;;;;;;;;;;;5063154;28;1401;-77
2022/09/09 06:22:06;;;;;;;;;;;;;;;;;;5066248;28;1902;-77
2022/09/09 06:24:32;;;;;;;;;;;;;;;;;;5065451;28;1419;-77
2022/09/09 06:26:57;;;;;;;;;;;;;;;;;;5067597;28;1226;-75
2022/09/09 06:29:23;;;;;;;;;;;;;;;;;;5072277;28;1328;-77
2022/09/09 06:31:48;;;;;;;;;;;;;;;;;;5068297;28;1287;-77
2022/09/09 06:34:13;;;;;;;;;;;;;;;;;;5066458;28;1338;-77
2022/09/09 06:36:38;;;;;;;;;;;;;;;;;;5067482;28;1277;-76
2022/09/09 06:39:04;;;;;;;;;;;;;;;;;;5072569;28;1239;-76
2022/09/09 06:41:30;;;;;;;;;;;;;;;;;;5065025;28;1903;-76
2022/09/09 06:43:55;;;;;;;;;;;;;;;;;;5066693;28;1456;-75
2022/09/09 06:46:22;;;;;;;;;;;;;;;;;;5064617;28;1684;-76
2022/09/09 06:48:47;;;;;;;;;;;;;;;;;;5056869;28;1404;-76
2022/09/09 06:51:22;;;;;;;;;;;;;;;;;;5041162;28;1547;-75
2022/09/09 06:53:50;;;;;;;;;;;;;;;;;;5050748;28;1330;-76
2022/09/09 06:56:19;;;;;;;;;;;;;;;;;;5040629;28;1021;-76
2022/09/09 06:58:44;;;;;;;;;;;;;;;;;;5041234;28;1633;-76
2022/09/09 07:01:12;;;;;;;;;;;;;;;;;;5041087;28;1906;-76
2022/09/09 07:03:38;;;;;;;;;;;;;;;;;;5040889;28;1259;-76
2022/09/09 07:06:03;;;;;;;;;;;;;;;;;;5058346;28;1387;-76
2022/09/09 07:08:30;;;;;;;;;;;;;;;;;;5060587;28;1083;-76
2022/09/09 07:11:01;;;;;;;;;;;;;;;;;;5049202;28;1597;-76
2022/09/09 07:13:27;;;;;;;;;;;;;;;;;;5060905;28;1660;-76
2022/09/09 07:15:52;;;;;;;;;;;;;;;;;;5062859;28;1341;-75
2022/09/09 07:18:17;;;;;;;;;;;;;;;;;;5022519;28;847;-75
2022/09/09 07:20:42;;;;;;;;;;;;;;;;;;5040434;28;2046;-75
2022/09/09 07:23:08;;;;;;;;;;;;;;;;;;5046118;28;1476;-75
2022/09/09 07:25:33;;;;;;;;;;;;;;;;;;5062246;28;1450;-73
2022/09/09 07:27:58;;;;;;;;;;;;;;;;;;5053665;28;1430;-76
2022/09/09 07:30:23;;;;;;;;;;;;;;;;;;5043693;28;1390;-75
2022/09/09 07:32:50;;;;;;;;;;;;;;;;;;5060218;28;1176;-74
2022/09/09 07:35:16;;;;;;;;;;;;;;;;;;5050420;28;1567;-75
2022/09/09 07:37:41;;;;;;;;;;;;;;;;;;5040337;28;752;-75
2022/09/09 07:40:06;;;;;;;;;;;;;;;;;;5040416;28;1965;-75
2022/09/09 07:42:31;;;;;;;;;;;;;;;;;;5048651;28;1480;-75
2022/09/09 07:44:56;;;;;;;;;;;;;;;;;;5048553;28;1761;-74
2022/09/09 07:47:22;;;;;;;;;;;;;;;;;;5060109;28;791;-75
2022/09/09 07:49:49;;;;;;;;;;;;;;;;;;5060035;28;854;-75
2022/09/09 07:52:14;;;;;;;;;;;;;;;;;;5043021;28;1586;-74
2022/09/09 07:54:40;;;;;;;;;;;;;;;;;;5038823;28;1465;-74
2022/09/09 07:57:05;;;;;;;;;;;;;;;;;;5046517;28;1625;-74
2022/09/09 07:59:30;;;;;;;;;;;;;;;;;;5046434;28;1507;-74
2022/09/09 08:01:55;;;;;;;;;;;;;;;;;;5053181;28;1894;-73
2022/09/09 08:04:21;;;;;;;;;;;;;;;;;;5058967;28;1611;-73
2022/09/09 08:06:52;;;;;;;;;;;;;;;;;;5059391;28;1522;-73
2022/09/09 08:09:18;;;;;;;;;;;;;;;;;;5059297;28;1483;-73
2022/09/09 08:11:43;;;;;;;;;;;;;;;;;;5041679;28;1558;-73
2022/09/09 08:14:10;;;;;;;;;;;;;;;;;;5059341;28;1259;-74
2022/09/09 08:16:43;;;;;;;;;;;;;;;;;;5042484;28;1471;-74
2022/09/09 08:19:08;;;;;;;;;;;;;;;;;;5027389;28;1399;-74
2022/09/09 08:21:36;;;;;;;;;;;;;;;;;;5067623;28;1970;-72
2022/09/09 08:24:02;;;;;;;;;;;;;;;;;;5077300;28;1474;-72
2022/09/09 08:26:28;;;;;;;;;;;;;;;;;;5056689;28;1302;-74
2022/09/09 08:28:55;;;;;;;;;;;;;;;;;;5043912;28;1491;-73
2022/09/09 08:31:21;;;;;;;;;;;;;;;;;;5054909;28;1531;-73
2022/09/09 08:33:47;;;;;;;;;;;;;;;;;;5045056;28;1569;-73
2022/09/09 08:36:15;;;;;;;;;;;;;;;;;;5054838;28;1449;-73
2022/09/09 08:38:40;;;;;;;;;;;;;;;;;;5062788;28;1698;-73
2022/09/09 08:41:17;;;;;;;;;;;;;;;;;;5053477;28;1902;-73
2022/09/09 08:43:45;;;;;;;;;;;;;;;;;;5056349;28;2123;-73
2022/09/09 08:46:25;;;;;;;;;;;;;;;;;;5058690;28;1326;-74
2022/09/09 08:49:08;;;;;;;;;;;;;;;;;;5060821;28;1680;-75
2022/09/09 08:51:34;;;;;;;;;;;;;;;;;;5056337;28;1780;-72
2022/09/09 08:54:01;;;;;;;;;;;;;;;;;;5059467;28;1238;-74
2022/09/09 08:56:28;;;;;;;;;;;;;;;;;;5045353;28;1484;-76
2022/09/09 08:58:57;;;;;;;;;;;;;;;;;;5055609;28;1612;-73
2022/09/09 09:01:27;;;;;;;;;;;;;;;;;;5057382;28;1969;-74
2022/09/09 09:04:07;;;;;;;;;;;;;;;;;;5060115;28;2017;-74
2022/09/09 09:06:38;;;;;;;;;;;;;;;;;;5055457;28;1600;-76
2022/09/09 09:09:03;;;;;;;;;;;;;;;;;;5054579;28;1645;-76
2022/09/09 09:11:36;;;;;;;;;;;;;;;;;;5055315;28;1885;-71
2022/09/09 09:14:03;;;;;;;;;;;;;;;;;;5056012;28;1938;-72
2022/09/09 09:16:28;;;;;;;;;;;;;;;;;;5051418;28;1623;-72
2022/09/09 09:18:54;;;;;;;;;;;;;;;;;;5048865;28;1577;-75
2022/09/09 09:21:26;;;;;;;;;;;;;;;;;;5059455;28;1906;-75
2022/09/09 09:23:56;;;;;;;;;;;;;;;;;;5059084;28;1611;-72
2022/09/09 09:26:24;;;;;;;;;;;;;;;;;;5030197;28;1613;-75
2022/09/09 09:28:50;;;;;;;;;;;;;;;;;;5056100;28;1592;-72
2022/09/09 09:31:15;;;;;;;;;;;;;;;;;;5052964;28;1584;-76
2022/09/09 09:33:46;;;;;;;;;;;;;;;;;;5059169;28;1640;-74
2022/09/09 09:36:15;;;;;;;;;;;;;;;;;;5058076;28;1632;-73
2022/09/09 09:38:50;;;;;;;;;;;;;;;;;;5056618;28;1595;-72
2022/09/09 09:41:18;;;;;;;;;;;;;;;;;;5051052;28;1897;-73
2022/09/09 09:43:53;;;;;;;;;;;;;;;;;;5053501;28;2068;-72
2022/09/09 09:46:23;;;;;;;;;;;;;;;;;;5057254;28;1568;-73
2022/09/09 09:49:05;;;;;;;;;;;;;;;;;;5049943;28;1671;-74
2022/09/09 09:51:32;;;;;;;;;;;;;;;;;;5057549;28;1124;-73
2022/09/09 09:54:13;;;;;;;;;;;;;;;;;;5058522;28;1954;-72
2022/09/09 09:56:39;;;;;;;;;;;;;;;;;;5056173;28;1760;-72
2022/09/09 09:59:04;;;;;;;;;;;;;;;;;;5057953;28;1910;-77
2022/09/09 10:01:33;;;;;;;;;;;;;;;;;;5055850;28;1957;-73
2022/09/09 10:04:00;;;;;;;;;;;;;;;;;;5059444;28;1778;-71
2022/09/09 10:06:36;;;;;;;;;;;;;;;;;;5063276;28;1238;-73
2022/09/09 10:09:02;;;;;;;;;;;;;;;;;;5059403;28;1736;-72
2022/09/09 10:11:45;;;;;;;;;;;;;;;;;;5065091;28;1718;-73
2022/09/09 10:14:17;;;;;;;;;;;;;;;;;;5051428;28;1913;-73
2022/09/09 10:16:52;;;;;;;;;;;;;;;;;;5051502;28;1689;-73
2022/09/09 10:19:29;;;;;;;;;;;;;;;;;;5060029;28;1690;-73
2022/09/09 10:21:57;;;;;;;;;;;;;;;;;;5059452;28;1960;-73
2022/09/09 10:24:28;;;;;;;;;;;;;;;;;;5042056;28;1297;-73
2022/09/09 10:26:59;;;;;;;;;;;;;;;;;;5059861;28;1267;-73
2022/09/09 10:29:31;;;;;;;;;;;;;;;;;;5053991;28;1466;-73
2022/09/09 10:32:19;;;;;;;;;;;;;;;;;;5057574;28;1467;-73
2022/09/09 10:34:50;;;;;;;;;;;;;;;;;;5053056;28;2306;-73
2022/09/09 10:37:25;;;;;;;;;;;;;;;;;;5056676;28;1378;-74
2022/09/09 10:39:58;;;;;;;;;;;;;;;;;;5047073;28;1506;-73
2022/09/09 10:42:28;;;;;;;;;;;;;;;;;;5069400;28;1971;-73
2022/09/09 10:45:00;;;;;;;;;;;;;;;;;;5065741;28;1404;-72
2022/09/09 10:47:34;;;;;;;;;;;;;;;;;;5046433;28;1342;-72
2022/09/09 10:50:18;;;;;;;;;;;;;;;;;;5064762;28;1365;-72
2022/09/09 10:53:01;;;;;;;;;;;;;;;;;;5063656;28;1511;-72
2022/09/09 10:55:35;;;;;;;;;;;;;;;;;;5062825;28;1164;-72
2022/09/09 10:58:02;;;;;;;;;;;;;;;;;;5048662;28;1528;-72
2022/09/09 11:00:37;;;;;;;;;;;;;;;;;;5061759;28;1969;-72
2022/09/09 11:03:03;;;;;;;;;;;;;;;;;;5056280;28;1786;-72
2022/09/09 11:05:28;;;;;;;;;;;;;;;;;;5055839;28;1287;-72
2022/09/09 11:07:59;;;;;;;;;;;;;;;;;;5057621;28;1392;-73
2022/09/09 11:10:43;;;;;;;;;;;;;;;;;;5057468;28;1523;-73
2022/09/09 11:13:15;;;;;;;;;;;;;;;;;;5060466;28;1266;-72
2022/09/09 11:15:44;;;;;;;;;;;;;;;;;;5057975;28;1275;-72
2022/09/09 11:18:19;;;;;;;;;;;;;;;;;;5041947;28;1322;-72
2022/09/09 11:20:45;;;;;;;;;;;;;;;;;;5057267;28;1894;-71
2022/09/09 11:23:16;;;;;;;;;;;;;;;;;;5058860;28;1353;-70
2022/09/09 11:25:45;;;;;;;;;;;;;;;;;;5038865;28;1264;-75
2022/09/09 11:28:30;;;;;;;;;;;;;;;;;;5055553;28;1267;-71
2022/09/09 11:31:22;;;;;;;;;;;;;;;;;;5059274;28;1624;-71
2022/09/09 11:33:48;;;;;;;;;;;;;;;;;;5024999;28;1469;-70
2022/09/09 11:36:35;;;;;;;;;;;;;;;;;;5055568;28;1381;-69
2022/09/09 11:39:07;;;;;;;;;;;;;;;;;;5058338;28;1256;-72
2022/09/09 11:41:34;;;;;;;;;;;;;;;;;;5054460;28;1926;-70
2022/09/09 11:43:59;;;;;;;;;;;;;;;;;;5060237;28;1353;-69
2022/09/09 11:46:33;;;;;;;;;;;;;;;;;;5064128;28;1325;-68
2022/09/09 11:49:02;;;;;;;;;;;;;;;;;;5065588;28;1317;-68
2022/09/09 11:51:30;;;;;;;;;;;;;;;;;;5065168;28;1420;-68
2022/09/09 11:54:21;;;;;;;;;;;;;;;;;;5070262;28;1710;-68
2022/09/09 11:56:46;;;;;;;;;;;;;;;;;;5068193;28;1179;-68
2022/09/09 11:59:25;;;;;;;;;;;;;;;;;;5063548;28;1751;-68
2022/09/09 12:01:56;;;;;;;;;;;;;;;;;;5054630;28;1988;-68
2022/09/09 12:04:24;;;;;;;;;;;;;;;;;;5063641;28;1344;-68
2022/09/09 12:06:58;;;;;;;;;;;;;;;;;;5066644;28;1302;-67
2022/09/09 12:09:29;;;;;;;;;;;;;;;;;;5071288;28;1191;-68
2022/09/09 12:12:05;;;;;;;;;;;;;;;;;;5072202;28;1283;-67
2022/09/09 12:14:45;;;;;;;;;;;;;;;;;;5072147;28;1338;-67
2022/09/09 12:17:21;;;;;;;;;;;;;;;;;;5065094;28;1445;-68
2022/09/09 12:19:47;;;;;;;;;;;;;;;;;;5072614;28;1291;-68
2022/09/09 12:22:31;;;;;;;;;;;;;;;;;;5069045;28;1902;-68
2022/09/09 12:25:20;;;;;;;;;;;;;;;;;;5066862;28;1345;-68
2022/09/09 12:28:01;;;;;;;;;;;;;;;;;;5001530;28;1489;-68
2022/09/09 12:30:32;;;;;;;;;;;;;;;;;;5067638;28;1429;-69
2022/09/09 12:33:01;;;;;;;;;;;;;;;;;;5065696;28;1411;-67
2022/09/09 12:35:28;;;;;;;;;;;;;;;;;;5058724;28;1366;-68
2022/09/09 12:37:58;;;;;;;;;;;;;;;;;;5066993;28;1325;-68
2022/09/09 12:40:25;;;;;;;;;;;;;;;;;;5068349;28;2003;-67
2022/09/09 12:42:50;;;;;;;;;;;;;;;;;;5067967;28;1305;-68
2022/09/09 12:45:17;;;;;;;;;;;;;;;;;;5064975;28;1405;-67
2022/09/09 12:47:48;;;;;;;;;;;;;;;;;;5069519;28;1238;-68
2022/09/09 12:50:25;;;;;;;;;;;;;;;;;;5065563;28;1286;-67
2022/09/09 12:52:53;;;;;;;;;;;;;;;;;;5062915;28;1243;-67
2022/09/09 12:55:24;;;;;;;;;;;;;;;;;;5063468;28;1333;-70
2022/09/09 12:57:51;;;;;;;;;;;;;;;;;;5068890;28;1172;-68
2022/09/09 13:00:20;;;;;;;;;;;;;;;;;;5067171;28;1962;-68
2022/09/09 13:02:50;;;;;;;;;;;;;;;;;;5069984;28;1291;-70
2022/09/09 13:05:17;;;;;;;;;;;;;;;;;;5068353;28;1219;-70
2022/09/09 13:07:43;;;;;;;;;;;;;;;;;;5066034;28;1801;-70
2022/09/09 13:10:10;;;;;;;;;;;;;;;;;;5071041;28;1258;-68
2022/09/09 13:12:35;;;;;;;;;;;;;;;;;;5071558;28;1349;-69
2022/09/09 13:15:02;;;;;;;;;;;;;;;;;;5063600;28;1235;-69
2022/09/09 13:17:28;;;;;;;;;;;;;;;;;;5068399;28;1345;-69
2022/09/09 13:19:55;;;;;;;;;;;;;;;;;;5068862;28;1419;-69
2022/09/09 13:22:30;;;;;;;;;;;;;;;;;;5067047;28;1899;-69
2022/09/09 13:24:58;;;;;;;;;;;;;;;;;;5063305;28;1269;-69
2022/09/09 13:27:29;;;;;;;;;;;;;;;;;;5069594;28;1280;-68
2022/09/09 13:29:55;;;;;;;;;;;;;;;;;;5068922;28;1441;-68
2022/09/09 13:32:21;;;;;;;;;;;;;;;;;;5062945;28;1310;-68
2022/09/09 13:34:57;;;;;;;;;;;;;;;;;;5068903;28;1262;-69
2022/09/09 13:37:36;;;;;;;;;;;;;;;;;;5064961;28;1416;-68
2022/09/09 13:40:02;;;;;;;;;;;;;;;;;;5054175;28;1404;-69
2022/09/09 13:42:32;;;;;;;;;;;;;;;;;;5063300;28;1886;-69
2022/09/09 13:44:58;;;;;;;;;;;;;;;;;;5059711;28;1664;-70
2022/09/09 13:47:28;;;;;;;;;;;;;;;;;;5061989;28;1868;-70
2022/09/09 13:49:54;;;;;;;;;;;;;;;;;;5064492;28;1903;-71
2022/09/09 13:52:19;;;;;;;;;;;;;;;;;;5061225;28;1341;-72
2022/09/09 13:54:51;;;;;;;;;;;;;;;;;;5059275;28;1522;-71
2022/09/09 13:57:17;;;;;;;;;;;;;;;;;;5061116;28;1298;-71
2022/09/09 13:59:43;;;;;;;;;;;;;;;;;;5057831;28;1329;-72
2022/09/09 14:02:08;;;;;;;;;;;;;;;;;;5059549;28;1906;-71
2022/09/09 14:04:34;;;;;;;;;;;;;;;;;;5059619;28;1371;-71
2022/09/09 14:07:00;;;;;;;;;;;;;;;;;;5055886;28;1381;-71
2022/09/09 14:09:25;;;;;;;;;;;;;;;;;;5058453;28;1500;-72
2022/09/09 14:11:50;;;;;;;;;;;;;;;;;;5041311;28;1623;-71
2022/09/09 14:14:15;;;;;;;;;;;;;;;;;;5060797;28;1259;-70
2022/09/09 14:16:41;;;;;;;;;;;;;;;;;;5063114;28;1301;-71
2022/09/09 14:19:07;;;;;;;;;;;;;;;;;;5063894;28;1255;-70
2022/09/09 14:21:32;;;;;;;;;;;;;;;;;;5069354;28;1890;-71
2022/09/09 14:23:57;;;;;;;;;;;;;;;;;;5068775;28;1435;-70
2022/09/09 14:26:23;;;;;;;;;;;;;;;;;;5069419;28;1194;-71
2022/09/09 14:28:49;;;;;;;;;;;;;;;;;;5066086;28;1353;-71
2022/09/09 14:31:17;;;;;;;;;;;;;;;;;;5064325;28;1799;-70
2022/09/09 14:33:42;;;;;;;;;;;;;;;;;;5064713;28;1279;-71
2022/09/09 14:36:07;;;;;;;;;;;;;;;;;;5062492;28;1353;-72
2022/09/09 14:38:34;;;;;;;;;;;;;;;;;;5052974;28;1212;-72
2022/09/09 14:40:59;;;;;;;;;;;;;;;;;;5048704;28;1893;-74
2022/09/09 14:43:25;;;;;;;;;;;;;;;;;;5049481;28;1325;-73
2022/09/09 14:45:54;;;;;;;;;;;;;;;;;;5066545;28;1373;-73
2022/09/09 14:48:19;;;;;;;;;;;;;;;;;;5066557;28;1220;-75
2022/09/09 14:50:44;;;;;;;;;;;;;;;;;;5061407;28;1369;-75
2022/09/09 14:53:09;;;;;;;;;;;;;;;;;;5063184;28;1370;-75
2022/09/09 14:55:35;;;;;;;;;;;;;;;;;;5065595;28;1260;-75
2022/09/09 14:58:00;;;;;;;;;;;;;;;;;;5068307;28;1301;-74
2022/09/09 15:00:26;;;;;;;;;;;;;;;;;;5058432;28;1964;-74
2022/09/09 15:02:54;;;;;;;;;;;;;;;;;;5065867;28;1338;-73
2022/09/09 15:05:20;;;;;;;;;;;;;;;;;;5062996;28;1274;-74
2022/09/09 15:07:45;;;;;;;;;;;;;;;;;;5047336;28;1223;-75
2022/09/09 15:10:10;;;;;;;;;;;;;;;;;;5072129;28;1215;-75
2022/09/09 15:12:36;;;;;;;;;;;;;;;;;;5058161;28;1853;-76
2022/09/09 15:15:01;;;;;;;;;;;;;;;;;;5065000;28;1215;-76
2022/09/09 15:17:27;;;;;;;;;;;;;;;;;;5065084;28;1269;-75
2022/09/09 15:19:52;;;;;;;;;;;;;;;;;;5068367;28;1242;-73
2022/09/09 15:22:18;;;;;;;;;;;;;;;;;;5065198;28;1963;-76
2022/09/09 15:24:44;;;;;;;;;;;;;;;;;;5065296;28;1316;-77
2022/09/09 15:27:09;;;;;;;;;;;;;;;;;;5061516;28;1453;-79
2022/09/09 15:29:34;;;;;;;;;;;;;;;;;;5062798;28;1302;-72
2022/09/09 15:31:59;;;;;;;;;;;;;;;;;;5055799;28;1759;-77
2022/09/09 15:34:25;;;;;;;;;;;;;;;;;;5054494;28;1741;-73
2022/09/09 15:36:50;;;;;;;;;;;;;;;;;;5034109;28;1312;-73
2022/09/09 15:39:16;;;;;;;;;;;;;;;;;;5059797;28;1058;-72
2022/09/09 15:41:42;;;;;;;;;;;;;;;;;;5058894;28;1909;-72
2022/09/09 15:44:10;;;;;;;;;;;;;;;;;;5059427;28;1376;-72
2022/09/09 15:46:37;;;;;;;;;;;;;;;;;;5058511;28;1219;-72
2022/09/09 15:49:05;;;;;;;;;;;;;;;;;;5059517;28;1255;-72
2022/09/09 15:51:30;;;;;;;;;;;;;;;;;;5057532;28;1383;-72
2022/09/09 15:53:56;;;;;;;;;;;;;;;;;;5056954;28;1483;-73
2022/09/09 15:56:21;;;;;;;;;;;;;;;;;;5056180;28;1337;-73
2022/09/09 15:58:46;;;;;;;;;;;;;;;;;;5058252;28;1302;-73
2022/09/09 16:01:12;;;;;;;;;;;;;;;;;;5059450;28;1918;-73
2022/09/09 16:03:39;;;;;;;;;;;;;;;;;;5059162;28;1338;-73
2022/09/09 16:06:04;;;;;;;;;;;;;;;;;;5040484;28;1266;-73
2022/09/09 16:08:37;;;;;;;;;;;;;;;;;;5055372;28;1523;-73
2022/09/09 16:11:05;;;;;;;;;;;;;;;;;;5052787;28;1589;-73
2022/09/09 16:13:32;;;;;;;;;;;;;;;;;;5059202;28;1268;-73
2022/09/09 16:15:57;;;;;;;;;;;;;;;;;;5058682;28;1199;-72
2022/09/09 16:18:23;;;;;;;;;;;;;;;;;;5059297;28;1192;-73
2022/09/09 16:20:54;;;;;;;;;;;;;;;;;;5058480;28;1905;-73
2022/09/09 16:23:20;;;;;;;;;;;;;;;;;;5058925;28;1362;-73
2022/09/09 16:25:52;;;;;;;;;;;;;;;;;;5057964;28;1702;-73
2022/09/09 16:28:18;;;;;;;;;;;;;;;;;;5055068;28;1262;-73
2022/09/09 16:30:43;;;;;;;;;;;;;;;;;;5054441;28;1321;-72
2022/09/09 16:33:08;;;;;;;;;;;;;;;;;;5028895;28;1622;-74
2022/09/09 16:35:36;;;;;;;;;;;;;;;;;;5052680;28;1737;-72
2022/09/09 16:38:01;;;;;;;;;;;;;;;;;;5051157;28;1314;-71
2022/09/09 16:40:27;;;;;;;;;;;;;;;;;;5059415;28;1914;-70
2022/09/09 16:42:52;;;;;;;;;;;;;;;;;;5055430;28;2118;-71
2022/09/09 16:45:17;;;;;;;;;;;;;;;;;;5050549;28;1773;-70
2022/09/09 16:47:43;;;;;;;;;;;;;;;;;;5049784;28;1440;-70
2022/09/09 16:50:08;;;;;;;;;;;;;;;;;;5063904;28;1057;-70
2022/09/09 16:52:34;;;;;;;;;;;;;;;;;;5069315;28;1530;-70
2022/09/09 16:54:59;;;;;;;;;;;;;;;;;;5070783;28;1187;-70
2022/09/09 16:57:24;;;;;;;;;;;;;;;;;;5070629;28;1330;-70
2022/09/09 16:59:50;;;;;;;;;;;;;;;;;;5065910;28;1349;-70
2022/09/09 17:02:15;;;;;;;;;;;;;;;;;;5067644;28;1893;-70
2022/09/09 17:04:40;;;;;;;;;;;;;;;;;;5065849;28;1513;-70
2022/09/09 17:07:05;;;;;;;;;;;;;;;;;;5065361;28;1400;-70
2022/09/09 17:09:31;;;;;;;;;;;;;;;;;;5067349;28;1200;-70
2022/09/09 17:11:57;;;;;;;;;;;;;;;;;;5068740;28;1259;-70